Wetterdaten: Woche 17.07.06 - 23.07.06 (KW29)
Datum Zeit Temperatur Luftfeuchte Luftdruck Niederschlag Windrichtung Wind
17.07.2006 00:00 17,7 C 57 % 1024 hPa 0,0 l/m NO 13,4 km/h (3 Bft)
17.07.2006 01:00 16,7 C 62 % 1024 hPa 0,0 l/m O-NO 2,9 km/h (1 Bft)
17.07.2006 02:00 15,0 C 70 % 1024 hPa 0,0 l/m N-NW 0,5 km/h (0 Bft)
17.07.2006 03:00 14,3 C 72 % 1023 hPa 0,0 l/m N-NW 6,4 km/h (2 Bft)
17.07.2006 04:00 13,6 C 72 % 1023 hPa 0,0 l/m NW 11,0 km/h (2 Bft)
17.07.2006 05:00 12,7 C 75 % 1024 hPa 0,0 l/m NW 10,8 km/h (2 Bft)
17.07.2006 06:00 12,2 C 77 % 1024 hPa 0,0 l/m N-NW 12,8 km/h (3 Bft)
17.07.2006 07:00 13,5 C 75 % 1024 hPa 0,0 l/m N 12,4 km/h (3 Bft)
17.07.2006 08:00 15,5 C 70 % 1024 hPa 0,0 l/m N 13,4 km/h (3 Bft)
17.07.2006 09:00 18,5 C 58 % 1024 hPa 0,0 l/m O-NO 17,4 km/h (3 Bft)
17.07.2006 10:00 21,3 C 46 % 1023 hPa 0,0 l/m O-NO 20,9 km/h (4 Bft)
17.07.2006 11:00 23,0 C 40 % 1023 hPa 0,0 l/m NO 23,7 km/h (4 Bft)
17.07.2006 12:00 24,4 C 34 % 1023 hPa 0,0 l/m NO 24,5 km/h (4 Bft)
17.07.2006 13:00 25,9 C 29 % 1023 hPa 0,0 l/m N-NO 20,8 km/h (4 Bft)
17.07.2006 14:00 26,8 C 25 % 1023 hPa 0,0 l/m O 23,7 km/h (4 Bft)
17.07.2006 15:00 27,3 C 23 % 1022 hPa 0,0 l/m O-NO 22,2 km/h (4 Bft)
17.07.2006 16:00 27,9 C 23 % 1022 hPa 0,0 l/m O-NO 22,7 km/h (4 Bft)
17.07.2006 17:00 27,8 C 22 % 1022 hPa 0,0 l/m O 24,8 km/h (4 Bft)
17.07.2006 18:00 27,4 C 23 % 1022 hPa 0,0 l/m O-NO 23,4 km/h (4 Bft)
17.07.2006 19:00 25,8 C 25 % 1022 hPa 0,0 l/m O 20,7 km/h (4 Bft)
17.07.2006 20:00 23,8 C 28 % 1022 hPa 0,0 l/m NO 14,3 km/h (3 Bft)
17.07.2006 21:00 21,9 C 34 % 1022 hPa 0,0 l/m N-NO 11,2 km/h (2 Bft)
17.07.2006 22:00 20,0 C 41 % 1022 hPa 0,0 l/m N-NO 5,6 km/h (1 Bft)
17.07.2006 23:00 18,7 C 46 % 1022 hPa 0,0 l/m N-NO 8,9 km/h (2 Bft)
18.07.2006 00:00 17,8 C 50 % 1022 hPa 0,0 l/m N 9,1 km/h (2 Bft)
18.07.2006 01:00 16,7 C 56 % 1022 hPa 0,0 l/m N 9,5 km/h (2 Bft)
18.07.2006 02:00 15,8 C 61 % 1022 hPa 0,0 l/m N-NW 4,3 km/h (1 Bft)
18.07.2006 03:00 14,7 C 69 % 1022 hPa 0,0 l/m NW 8,7 km/h (2 Bft)
18.07.2006 04:00 14,2 C 73 % 1022 hPa 0,0 l/m NW 10,7 km/h (2 Bft)
18.07.2006 05:00 13,8 C 75 % 1022 hPa 0,0 l/m W-NW 8,5 km/h (2 Bft)
18.07.2006 06:00 13,8 C 76 % 1022 hPa 0,0 l/m NW 8,4 km/h (2 Bft)
18.07.2006 07:00 14,7 C 76 % 1022 hPa 0,0 l/m NW 8,4 km/h (2 Bft)
18.07.2006 08:00 16,9 C 69 % 1022 hPa 0,0 l/m N-NO 11,6 km/h (2 Bft)
18.07.2006 09:00 20,0 C 56 % 1022 hPa 0,0 l/m NO 14,0 km/h (3 Bft)
18.07.2006 10:00 23,1 C 43 % 1022 hPa 0,0 l/m O 16,2 km/h (3 Bft)
18.07.2006 11:00 25,7 C 36 % 1022 hPa 0,0 l/m NO 16,3 km/h (3 Bft)
18.07.2006 12:00 27,3 C 32 % 1021 hPa 0,0 l/m O-NO 19,7 km/h (3 Bft)
18.07.2006 13:00 28,6 C 28 % 1021 hPa 0,0 l/m O-NO 20,6 km/h (4 Bft)
18.07.2006 14:00 29,9 C 25 % 1021 hPa 0,0 l/m O-NO 19,2 km/h (3 Bft)
18.07.2006 15:00 30,5 C 22 % 1021 hPa 0,0 l/m O 20,3 km/h (4 Bft)
18.07.2006 16:00 30,8 C 21 % 1021 hPa 0,0 l/m O 19,9 km/h (4 Bft)
18.07.2006 17:00 31,0 C 21 % 1020 hPa 0,0 l/m O 16,4 km/h (3 Bft)
18.07.2006 18:00 30,7 C 22 % 1020 hPa 0,0 l/m O 18,0 km/h (3 Bft)
18.07.2006 19:00 28,8 C 24 % 1020 hPa 0,0 l/m O-NO 16,6 km/h (3 Bft)
18.07.2006 20:00 26,4 C 30 % 1020 hPa 0,0 l/m NO 5,9 km/h (2 Bft)
18.07.2006 21:00 22,9 C 41 % 1021 hPa 0,0 l/m N 0,0 km/h (0 Bft)
18.07.2006 22:00 20,2 C 49 % 1021 hPa 0,0 l/m W-NW 1,3 km/h (1 Bft)
18.07.2006 23:00 18,8 C 53 % 1021 hPa 0,0 l/m W-NW 4,3 km/h (1 Bft)
19.07.2006 00:00 17,9 C 56 % 1021 hPa 0,0 l/m W-NW 5,1 km/h (1 Bft)
19.07.2006 01:00 17,1 C 60 % 1021 hPa 0,0 l/m W-NW 3,0 km/h (1 Bft)
19.07.2006 02:00 16,3 C 64 % 1021 hPa 0,0 l/m W-NW 6,2 km/h (2 Bft)
19.07.2006 03:00 16,0 C 67 % 1021 hPa 0,0 l/m NW 11,2 km/h (2 Bft)
19.07.2006 04:00 15,3 C 70 % 1021 hPa 0,0 l/m W-NW 2,0 km/h (1 Bft)
19.07.2006 05:00 14,0 C 76 % 1021 hPa 0,0 l/m N 0,0 km/h (0 Bft)
19.07.2006 06:00 13,3 C 82 % 1021 hPa 0,0 l/m NW 1,8 km/h (1 Bft)
19.07.2006 07:00 15,1 C 76 % 1022 hPa 0,0 l/m NW 0,4 km/h (0 Bft)
19.07.2006 08:00 17,4 C 67 % 1022 hPa 0,0 l/m O 3,2 km/h (1 Bft)
19.07.2006 09:00 20,1 C 58 % 1022 hPa 0,0 l/m O 4,8 km/h (1 Bft)
19.07.2006 10:00 23,1 C 47 % 1022 hPa 0,0 l/m O 5,9 km/h (2 Bft)
19.07.2006 11:00 26,1 C 39 % 1022 hPa 0,0 l/m O 7,6 km/h (2 Bft)
19.07.2006 12:00 28,6 C 30 % 1021 hPa 0,0 l/m O-NO 9,0 km/h (2 Bft)
19.07.2006 13:00 30,6 C 22 % 1021 hPa 0,0 l/m O-NO 11,6 km/h (2 Bft)
19.07.2006 14:00 31,7 C 21 % 1021 hPa 0,0 l/m N-NO 12,0 km/h (2 Bft)
19.07.2006 15:00 32,5 C 20 % 1020 hPa 0,0 l/m N-NO 10,2 km/h (2 Bft)
19.07.2006 16:00 33,3 C 20 % 1020 hPa 0,0 l/m N 10,6 km/h (2 Bft)
19.07.2006 17:00 33,5 C 19 % 1020 hPa 0,0 l/m N 12,1 km/h (2 Bft)
19.07.2006 18:00 33,3 C 19 % 1019 hPa 0,0 l/m N-NO 12,4 km/h (3 Bft)
19.07.2006 19:00 31,1 C 21 % 1019 hPa 0,0 l/m N-NO 12,6 km/h (3 Bft)
19.07.2006 20:00 27,9 C 28 % 1019 hPa 0,0 l/m N-NO 2,1 km/h (1 Bft)
19.07.2006 21:00 23,9 C 35 % 1019 hPa 0,0 l/m N 0,0 km/h (0 Bft)
19.07.2006 22:00 21,6 C 42 % 1019 hPa 0,0 l/m N 0,0 km/h (0 Bft)
19.07.2006 23:00 20,2 C 45 % 1020 hPa 0,0 l/m NW 0,3 km/h (0 Bft)
20.07.2006 00:00 19,4 C 46 % 1020 hPa 0,0 l/m W-NW 3,6 km/h (1 Bft)
20.07.2006 01:00 19,4 C 45 % 1020 hPa 0,0 l/m W-NW 9,9 km/h (2 Bft)
20.07.2006 02:00 18,9 C 49 % 1020 hPa 0,0 l/m W-NW 4,4 km/h (1 Bft)
20.07.2006 03:00 17,1 C 59 % 1020 hPa 0,0 l/m N 0,0 km/h (0 Bft)
20.07.2006 04:00 15,8 C 68 % 1020 hPa 0,0 l/m N 0,0 km/h (0 Bft)
20.07.2006 05:00 14,9 C 74 % 1020 hPa 0,0 l/m N 0,0 km/h (0 Bft)
20.07.2006 06:00 14,5 C 77 % 1020 hPa 0,0 l/m N 0,0 km/h (0 Bft)
20.07.2006 07:00 15,3 C 78 % 1020 hPa 0,0 l/m N 0,0 km/h (0 Bft)
20.07.2006 08:00 17,2 C 74 % 1020 hPa 0,0 l/m S-SW 0,6 km/h (0 Bft)
20.07.2006 09:00 21,8 C 59 % 1021 hPa 0,0 l/m S 9,3 km/h (2 Bft)
20.07.2006 10:00 25,7 C 44 % 1021 hPa 0,0 l/m S 13,5 km/h (3 Bft)
20.07.2006 11:00 28,0 C 42 % 1021 hPa 0,0 l/m S-SW 14,0 km/h (3 Bft)
20.07.2006 12:00 30,2 C 34 % 1020 hPa 0,0 l/m S-SW 13,9 km/h (3 Bft)
20.07.2006 13:00 31,8 C 31 % 1020 hPa 0,0 l/m O-NO 14,5 km/h (3 Bft)
20.07.2006 14:00 33,0 C 27 % 1020 hPa 0,0 l/m O 14,4 km/h (3 Bft)
20.07.2006 15:00 33,1 C 25 % 1019 hPa 0,0 l/m NW 11,3 km/h (2 Bft)
20.07.2006 16:00 33,7 C 24 % 1019 hPa 0,0 l/m W 7,7 km/h (2 Bft)
20.07.2006 17:00 33,9 C 23 % 1019 hPa 0,0 l/m S-SW 11,4 km/h (2 Bft)
20.07.2006 18:00 33,2 C 23 % 1019 hPa 0,0 l/m W-SW 7,0 km/h (2 Bft)
20.07.2006 19:00 30,7 C 32 % 1019 hPa 0,0 l/m W 11,9 km/h (2 Bft)
20.07.2006 20:00 27,9 C 40 % 1020 hPa 0,0 l/m W-NW 5,8 km/h (2 Bft)
20.07.2006 21:00 25,3 C 49 % 1020 hPa 0,0 l/m N 0,0 km/h (0 Bft)
20.07.2006 22:00 23,1 C 56 % 1020 hPa 0,0 l/m N 0,0 km/h (0 Bft)
20.07.2006 23:00 21,5 C 65 % 1021 hPa 0,0 l/m W 1,0 km/h (0 Bft)
21.07.2006 00:00 20,3 C 69 % 1021 hPa 0,0 l/m N 0,0 km/h (0 Bft)
21.07.2006 01:00 19,7 C 73 % 1021 hPa 0,0 l/m N 0,0 km/h (0 Bft)
21.07.2006 02:00 18,9 C 78 % 1021 hPa 0,0 l/m N 0,0 km/h (0 Bft)
21.07.2006 03:00 18,0 C 83 % 1021 hPa 0,0 l/m N 0,0 km/h (0 Bft)
21.07.2006 04:00 17,4 C 84 % 1021 hPa 0,0 l/m N 0,0 km/h (0 Bft)
21.07.2006 05:00 16,6 C 89 % 1021 hPa 0,0 l/m N 0,0 km/h (0 Bft)
21.07.2006 06:00 16,4 C 91 % 1021 hPa 0,0 l/m N 0,0 km/h (0 Bft)
21.07.2006 07:00 17,5 C 89 % 1021 hPa 0,0 l/m N 0,0 km/h (0 Bft)
21.07.2006 08:00 20,1 C 81 % 1021 hPa 0,0 l/m O 2,2 km/h (1 Bft)
21.07.2006 09:00 23,0 C 69 % 1021 hPa 0,0 l/m SO 3,9 km/h (1 Bft)
21.07.2006 10:00 26,1 C 53 % 1021 hPa 0,0 l/m O 3,8 km/h (1 Bft)
21.07.2006 11:00 29,3 C 42 % 1021 hPa 0,0 l/m O-SO 10,3 km/h (2 Bft)
21.07.2006 12:00 30,8 C 37 % 1021 hPa 0,0 l/m S 10,4 km/h (2 Bft)
21.07.2006 13:00 31,9 C 33 % 1021 hPa 0,0 l/m S 10,7 km/h (2 Bft)
21.07.2006 14:00 33,1 C 30 % 1020 hPa 0,0 l/m O 13,9 km/h (3 Bft)
21.07.2006 15:00 32,0 C 35 % 1020 hPa 0,0 l/m N 21,4 km/h (4 Bft)
21.07.2006 16:00 31,1 C 36 % 1019 hPa 0,0 l/m N 21,6 km/h (4 Bft)
21.07.2006 17:00 31,5 C 35 % 1019 hPa 0,0 l/m N 19,0 km/h (3 Bft)
21.07.2006 18:00 31,3 C 34 % 1019 hPa 0,0 l/m N 17,7 km/h (3 Bft)
21.07.2006 19:00 30,5 C 36 % 1019 hPa 0,0 l/m N-NO 14,5 km/h (3 Bft)
21.07.2006 20:00 27,1 C 46 % 1020 hPa 1,0 l/m S-SW 15,5 km/h (3 Bft)
21.07.2006 21:00 21,4 C 79 % 1020 hPa 0,0 l/m S-SW 10,4 km/h (2 Bft)
21.07.2006 22:00 20,1 C 89 % 1020 hPa 0,0 l/m S-SW 0,7 km/h (0 Bft)
21.07.2006 23:00 19,4 C 92 % 1020 hPa 0,0 l/m N 0,0 km/h (0 Bft)
22.07.2006 00:00 18,9 C 95 % 1020 hPa 0,0 l/m O-NO 0,9 km/h (0 Bft)
22.07.2006 01:00 18,2 C 95 % 1020 hPa 0,0 l/m N 0,0 km/h (0 Bft)
22.07.2006 02:00 17,5 C 96 % 1019 hPa 0,0 l/m W 1,8 km/h (1 Bft)
22.07.2006 03:00 17,0 C 96 % 1019 hPa 0,0 l/m N 0,0 km/h (0 Bft)
22.07.2006 04:00 16,4 C 98 % 1019 hPa 0,0 l/m N 0,0 km/h (0 Bft)
22.07.2006 05:00 15,8 C 99 % 1018 hPa 0,0 l/m N 0,0 km/h (0 Bft)
22.07.2006 06:00 15,7 C 100 % 1018 hPa 0,0 l/m N 0,0 km/h (0 Bft)
22.07.2006 07:00 16,6 C 100 % 1018 hPa 0,0 l/m N 0,0 km/h (0 Bft)
22.07.2006 08:00 18,8 C 89 % 1018 hPa 0,0 l/m N 0,0 km/h (0 Bft)
22.07.2006 09:00 21,2 C 71 % 1018 hPa 0,0 l/m S 4,5 km/h (1 Bft)
22.07.2006 10:00 24,5 C 55 % 1018 hPa 0,0 l/m SO 10,4 km/h (2 Bft)
22.07.2006 11:00 27,5 C 45 % 1018 hPa 0,0 l/m O 6,6 km/h (2 Bft)
22.07.2006 12:00 29,9 C 38 % 1018 hPa 0,0 l/m O-NO 10,3 km/h (2 Bft)
22.07.2006 13:00 31,5 C 32 % 1017 hPa 0,0 l/m SO 12,6 km/h (3 Bft)
22.07.2006 14:00 32,7 C 28 % 1017 hPa 0,0 l/m O-NO 12,5 km/h (3 Bft)
22.07.2006 15:00 33,2 C 27 % 1016 hPa 0,0 l/m S-SO 9,3 km/h (2 Bft)
22.07.2006 16:00 33,0 C 25 % 1016 hPa 0,0 l/m S-SW 12,3 km/h (3 Bft)
22.07.2006 17:00 31,7 C 29 % 1016 hPa 0,0 l/m W 9,3 km/h (2 Bft)
22.07.2006 18:00 29,0 C 40 % 1016 hPa 0,0 l/m W-NW 21,5 km/h (4 Bft)
22.07.2006 19:00 27,7 C 42 % 1016 hPa 0,0 l/m NW 19,7 km/h (3 Bft)
22.07.2006 20:00 25,3 C 47 % 1017 hPa 0,0 l/m NW 13,2 km/h (3 Bft)
22.07.2006 21:00 23,5 C 55 % 1018 hPa 0,0 l/m S-SW 1,9 km/h (1 Bft)
22.07.2006 22:00 22,0 C 64 % 1018 hPa 0,0 l/m S-SO 0,5 km/h (0 Bft)
22.07.2006 23:00 21,1 C 70 % 1018 hPa 0,0 l/m N 0,0 km/h (0 Bft)
23.07.2006 00:00 20,8 C 72 % 1019 hPa 0,0 l/m S 0,4 km/h (0 Bft)
23.07.2006 01:00 20,8 C 74 % 1019 hPa 0,0 l/m O 2,7 km/h (1 Bft)
23.07.2006 02:00 20,7 C 75 % 1019 hPa 0,0 l/m N-NO 1,8 km/h (1 Bft)
23.07.2006 03:00 20,0 C 79 % 1019 hPa 0,0 l/m N 0,0 km/h (0 Bft)
23.07.2006 04:00 19,0 C 84 % 1019 hPa 0,0 l/m N 0,0 km/h (0 Bft)
23.07.2006 05:00 18,8 C 87 % 1019 hPa 0,0 l/m N 0,0 km/h (0 Bft)
23.07.2006 06:00 18,9 C 90 % 1019 hPa 0,0 l/m N 0,0 km/h (0 Bft)
23.07.2006 07:00 19,4 C 91 % 1019 hPa 0,0 l/m N 0,0 km/h (0 Bft)
23.07.2006 08:00 19,8 C 90 % 1019 hPa 0,0 l/m S 3,5 km/h (1 Bft)
23.07.2006 09:00 19,4 C 94 % 1019 hPa 1,0 l/m W-SW 2,3 km/h (1 Bft)
23.07.2006 10:00 21,3 C 85 % 1020 hPa 0,0 l/m S 11,6 km/h (2 Bft)
23.07.2006 11:00 24,7 C 66 % 1019 hPa 0,0 l/m S 14,2 km/h (3 Bft)
23.07.2006 12:00 24,9 C 62 % 1019 hPa 8,0 l/m S 14,0 km/h (3 Bft)
23.07.2006 13:00 21,5 C 82 % 1020 hPa 0,0 l/m NW 11,0 km/h (2 Bft)
23.07.2006 14:00 18,6 C 92 % 1021 hPa 17,0 l/m W 9,9 km/h (2 Bft)
23.07.2006 15:00 19,1 C 100 % 1019 hPa 1,0 l/m W 3,5 km/h (1 Bft)
23.07.2006 16:00 22,0 C 94 % 1019 hPa 0,0 l/m W 1,4 km/h (1 Bft)
23.07.2006 17:00 24,4 C 77 % 1019 hPa 0,0 l/m W 5,8 km/h (2 Bft)
23.07.2006 18:00 24,9 C 67 % 1019 hPa 0,0 l/m O 10,6 km/h (2 Bft)
23.07.2006 19:00 24,5 C 64 % 1019 hPa 0,0 l/m O-SO 1,6 km/h (1 Bft)
23.07.2006 20:00 22,3 C 80 % 1019 hPa 0,0 l/m N 0,0 km/h (0 Bft)
23.07.2006 21:00 20,3 C 84 % 1019 hPa 0,0 l/m N 0,0 km/h (0 Bft)
23.07.2006 22:00 18,9 C 87 % 1020 hPa 0,0 l/m N 0,0 km/h (0 Bft)
23.07.2006 23:00 18,0 C 92 % 1020 hPa 0,0 l/m N 0,0 km/h (0 Bft)
Min-Datum _ 17.07.06 19.07.06 22.07.06 - - 17.07.06
_ Min-Zeit 06:08 16:19 17:03 - - 00:41
Minimum _ 12,1 C 19 % 1015 hPa - - 0,0 km/h (0 Bft)
Max-Datum _ 20.07.06 22.07.06 17.07.06 23.07.06 - 23.07.06
_ Max-Zeit 16:42 05:58 00:00 14:08 - 13:56
Maximum _ 34,4 C 100 % 1024 hPa 17,0 l/m - 44,9 km/h
NW (6 Bft)
Durchschnitt _ 22,8 C 56 % 1021 hPa #28,0 l/m O 8,2 km/h (2 Bft)

Durchschnitt Minimum Temp.22,0 C
Durchschnitt Maximum Temp.23,5 C